createdAt,value
2023-01-13T00:24:34.825Z,1
2023-01-13T00:53:26.270Z,1
2023-01-13T01:22:09.558Z,1
2023-01-13T01:50:50.727Z,1
2023-01-13T02:19:34.335Z,1
2023-01-13T02:48:24.316Z,1
2023-01-13T03:17:05.677Z,1
2023-01-13T03:45:55.580Z,1
2023-01-13T04:14:40.406Z,1
2023-01-13T04:43:30.559Z,0
2023-01-13T05:12:12.847Z,0
2023-01-13T05:41:04.505Z,1
2023-01-13T06:09:39.185Z,0
2023-01-13T06:38:20.946Z,0
2023-01-13T07:06:59.533Z,1
2023-01-13T07:35:42.506Z,0
2023-01-13T08:04:23.668Z,1
2023-01-13T08:33:08.583Z,1
2023-01-13T09:01:52.748Z,3
2023-01-13T09:30:18.545Z,4
2023-01-13T09:58:42.552Z,8
2023-01-13T10:27:10.382Z,6
2023-01-13T10:55:43.153Z,3
2023-01-13T11:24:15.767Z,3
2023-01-13T11:52:45.574Z,4
2023-01-13T12:21:34.241Z,3
2023-01-13T12:50:02.572Z,9
2023-01-13T13:18:34.599Z,16
2023-01-13T13:47:05.783Z,13
2023-01-13T14:15:39.909Z,13
2023-01-13T14:44:14.719Z,12
2023-01-13T15:12:46.246Z,10
2023-01-13T15:41:20.121Z,10
2023-01-13T16:09:54.216Z,9
2023-01-13T16:38:28.540Z,7
2023-01-13T17:06:58.477Z,7
2023-01-13T17:35:37.048Z,6
2023-01-13T18:04:20.464Z,4
2023-01-13T18:33:02.094Z,4
2023-01-13T19:01:36.283Z,3
2023-01-13T19:30:06.247Z,3
2023-01-13T19:58:47.645Z,3
2023-01-13T20:27:22.644Z,3
2023-01-13T20:55:58.806Z,3
2023-01-13T21:24:37.578Z,3
2023-01-13T21:53:17.934Z,3
2023-01-13T22:22:05.743Z,3
2023-01-13T22:50:55.280Z,3
2023-01-13T23:19:40.524Z,3
2023-01-13T23:48:24.868Z,3
